sensor_id;sensor_type;location;lat;lon;timestamp;P1;durP1;ratioP1;P2;durP2;ratioP2
40637;SDS011;26336;44.696;10.622;2022-10-16T00:01:54;37.25;;;27.77;;
40637;SDS011;26336;44.696;10.622;2022-10-16T00:04:58;32.20;;;25.30;;
40637;SDS011;26336;44.696;10.622;2022-10-16T00:08:03;32.88;;;24.60;;
40637;SDS011;26336;44.696;10.622;2022-10-16T00:14:16;31.75;;;24.92;;
40637;SDS011;26336;44.696;10.622;2022-10-16T00:17:20;34.17;;;24.08;;
40637;SDS011;26336;44.696;10.622;2022-10-16T00:20:24;37.28;;;26.08;;
40637;SDS011;26336;44.696;10.622;2022-10-16T00:23:49;30.27;;;23.10;;
40637;SDS011;26336;44.696;10.622;2022-10-16T00:26:55;27.83;;;22.88;;
40637;SDS011;26336;44.696;10.622;2022-10-16T00:29:59;29.33;;;23.08;;
40637;SDS011;26336;44.696;10.622;2022-10-16T00:33:03;30.35;;;22.67;;
40637;SDS011;26336;44.696;10.622;2022-10-16T00:36:07;29.25;;;22.13;;
40637;SDS011;26336;44.696;10.622;2022-10-16T00:39:13;30.83;;;23.45;;
40637;SDS011;26336;44.696;10.622;2022-10-16T00:42:18;32.15;;;22.92;;
40637;SDS011;26336;44.696;10.622;2022-10-16T00:45:22;29.25;;;24.13;;
40637;SDS011;26336;44.696;10.622;2022-10-16T00:48:27;32.72;;;22.42;;
40637;SDS011;26336;44.696;10.622;2022-10-16T00:51:33;33.42;;;24.60;;
40637;SDS011;26336;44.696;10.622;2022-10-16T00:54:38;34.97;;;25.13;;
40637;SDS011;26336;44.696;10.622;2022-10-16T00:57:42;34.60;;;25.00;;
40637;SDS011;26336;44.696;10.622;2022-10-16T01:00:48;33.85;;;24.08;;
40637;SDS011;26336;44.696;10.622;2022-10-16T01:03:52;35.33;;;25.60;;
40637;SDS011;26336;44.696;10.622;2022-10-16T01:13:48;32.08;;;25.42;;
40637;SDS011;26336;44.696;10.622;2022-10-16T01:16:56;38.90;;;27.40;;
40637;SDS011;26336;44.696;10.622;2022-10-16T01:20:23;35.42;;;26.85;;
40637;SDS011;26336;44.696;10.622;2022-10-16T01:30:34;38.78;;;27.83;;
40637;SDS011;26336;44.696;10.622;2022-10-16T01:33:43;37.78;;;29.55;;
40637;SDS011;26336;44.696;10.622;2022-10-16T01:36:52;37.97;;;27.50;;
40637;SDS011;26336;44.696;10.622;2022-10-16T01:40:00;37.28;;;27.75;;
40637;SDS011;26336;44.696;10.622;2022-10-16T01:43:09;36.85;;;28.02;;
40637;SDS011;26336;44.696;10.622;2022-10-16T01:46:17;39.83;;;29.33;;
40637;SDS011;26336;44.696;10.622;2022-10-16T01:49:24;39.78;;;28.40;;
40637;SDS011;26336;44.696;10.622;2022-10-16T01:52:31;35.65;;;26.00;;
40637;SDS011;26336;44.696;10.622;2022-10-16T01:55:43;29.48;;;23.35;;
40637;SDS011;26336;44.696;10.622;2022-10-16T01:58:54;36.47;;;26.50;;
40637;SDS011;26336;44.696;10.622;2022-10-16T02:02:04;35.75;;;24.95;;
40637;SDS011;26336;44.696;10.622;2022-10-16T02:05:15;35.08;;;25.98;;
40637;SDS011;26336;44.696;10.622;2022-10-16T02:08:57;31.58;;;23.58;;
40637;SDS011;26336;44.696;10.622;2022-10-16T02:12:14;32.83;;;24.23;;
40637;SDS011;26336;44.696;10.622;2022-10-16T02:15:22;34.17;;;25.63;;
40637;SDS011;26336;44.696;10.622;2022-10-16T02:18:26;35.20;;;25.38;;
40637;SDS011;26336;44.696;10.622;2022-10-16T02:21:34;32.53;;;26.05;;
40637;SDS011;26336;44.696;10.622;2022-10-16T02:24:59;32.92;;;24.92;;
40637;SDS011;26336;44.696;10.622;2022-10-16T02:31:18;34.15;;;25.17;;
40637;SDS011;26336;44.696;10.622;2022-10-16T02:34:28;35.75;;;25.65;;
40637;SDS011;26336;44.696;10.622;2022-10-16T02:37:35;32.65;;;24.08;;
40637;SDS011;26336;44.696;10.622;2022-10-16T02:40:41;34.35;;;25.85;;
40637;SDS011;26336;44.696;10.622;2022-10-16T02:43:46;28.23;;;23.23;;
40637;SDS011;26336;44.696;10.622;2022-10-16T02:46:50;35.33;;;26.17;;
40637;SDS011;26336;44.696;10.622;2022-10-16T02:49:53;32.40;;;23.95;;
40637;SDS011;26336;44.696;10.622;2022-10-16T02:52:57;34.95;;;24.88;;
40637;SDS011;26336;44.696;10.622;2022-10-16T02:56:02;32.58;;;24.52;;
40637;SDS011;26336;44.696;10.622;2022-10-16T02:59:06;33.63;;;23.50;;
40637;SDS011;26336;44.696;10.622;2022-10-16T03:02:10;31.35;;;23.85;;
40637;SDS011;26336;44.696;10.622;2022-10-16T03:05:14;35.05;;;25.88;;
40637;SDS011;26336;44.696;10.622;2022-10-16T03:08:18;33.88;;;26.00;;
40637;SDS011;26336;44.696;10.622;2022-10-16T03:11:27;30.30;;;23.77;;
40637;SDS011;26336;44.696;10.622;2022-10-16T03:14:31;31.33;;;23.65;;
40637;SDS011;26336;44.696;10.622;2022-10-16T03:17:35;32.28;;;23.90;;
40637;SDS011;26336;44.696;10.622;2022-10-16T03:20:39;32.13;;;24.90;;
40637;SDS011;26336;44.696;10.622;2022-10-16T03:23:43;33.45;;;23.30;;
40637;SDS011;26336;44.696;10.622;2022-10-16T03:26:48;32.38;;;22.95;;
40637;SDS011;26336;44.696;10.622;2022-10-16T03:29:52;27.90;;;21.80;;
40637;SDS011;26336;44.696;10.622;2022-10-16T03:32:56;26.27;;;20.52;;
40637;SDS011;26336;44.696;10.622;2022-10-16T03:36:00;27.60;;;20.25;;
40637;SDS011;26336;44.696;10.622;2022-10-16T03:39:04;31.40;;;22.75;;
40637;SDS011;26336;44.696;10.622;2022-10-16T03:42:09;28.08;;;20.80;;
40637;SDS011;26336;44.696;10.622;2022-10-16T03:45:13;26.50;;;20.05;;
40637;SDS011;26336;44.696;10.622;2022-10-16T03:48:17;29.45;;;20.35;;
40637;SDS011;26336;44.696;10.622;2022-10-16T03:51:22;23.67;;;19.05;;
40637;SDS011;26336;44.696;10.622;2022-10-16T03:54:26;25.88;;;20.05;;
40637;SDS011;26336;44.696;10.622;2022-10-16T03:57:30;23.92;;;19.17;;
40637;SDS011;26336;44.696;10.622;2022-10-16T04:00:34;27.70;;;19.48;;
40637;SDS011;26336;44.696;10.622;2022-10-16T04:03:38;23.20;;;19.30;;
40637;SDS011;26336;44.696;10.622;2022-10-16T04:06:42;26.52;;;19.88;;
40637;SDS011;26336;44.696;10.622;2022-10-16T04:09:46;30.67;;;19.52;;
40637;SDS011;26336;44.696;10.622;2022-10-16T04:12:50;25.33;;;18.10;;
40637;SDS011;26336;44.696;10.622;2022-10-16T04:15:54;24.73;;;17.35;;
40637;SDS011;26336;44.696;10.622;2022-10-16T04:18:58;22.20;;;16.33;;
40637;SDS011;26336;44.696;10.622;2022-10-16T04:22:02;23.67;;;17.77;;
40637;SDS011;26336;44.696;10.622;2022-10-16T04:25:06;23.42;;;16.92;;
40637;SDS011;26336;44.696;10.622;2022-10-16T04:28:11;20.63;;;16.48;;
40637;SDS011;26336;44.696;10.622;2022-10-16T04:31:15;22.02;;;16.35;;
40637;SDS011;26336;44.696;10.622;2022-10-16T04:34:18;22.40;;;16.90;;
40637;SDS011;26336;44.696;10.622;2022-10-16T04:37:24;21.40;;;15.95;;
40637;SDS011;26336;44.696;10.622;2022-10-16T04:40:28;20.52;;;15.35;;
40637;SDS011;26336;44.696;10.622;2022-10-16T04:43:36;24.63;;;17.75;;
40637;SDS011;26336;44.696;10.622;2022-10-16T04:46:40;21.17;;;16.35;;
40637;SDS011;26336;44.696;10.622;2022-10-16T04:49:44;21.58;;;16.80;;
40637;SDS011;26336;44.696;10.622;2022-10-16T04:52:48;23.48;;;17.10;;
40637;SDS011;26336;44.696;10.622;2022-10-16T04:55:52;19.52;;;15.23;;
40637;SDS011;26336;44.696;10.622;2022-10-16T04:58:56;21.75;;;16.45;;
40637;SDS011;26336;44.696;10.622;2022-10-16T05:02:00;19.50;;;15.05;;
40637;SDS011;26336;44.696;10.622;2022-10-16T05:05:04;20.65;;;15.98;;
40637;SDS011;26336;44.696;10.622;2022-10-16T05:08:08;20.90;;;15.80;;
40637;SDS011;26336;44.696;10.622;2022-10-16T05:11:12;19.90;;;16.60;;
40637;SDS011;26336;44.696;10.622;2022-10-16T05:14:16;19.27;;;16.65;;
40637;SDS011;26336;44.696;10.622;2022-10-16T05:17:20;21.10;;;16.80;;
40637;SDS011;26336;44.696;10.622;2022-10-16T05:20:24;21.20;;;17.38;;
40637;SDS011;26336;44.696;10.622;2022-10-16T05:23:28;22.65;;;17.83;;
40637;SDS011;26336;44.696;10.622;2022-10-16T05:26:32;26.15;;;19.65;;
40637;SDS011;26336;44.696;10.622;2022-10-16T05:29:36;25.10;;;18.17;;
40637;SDS011;26336;44.696;10.622;2022-10-16T05:32:40;22.73;;;16.95;;
40637;SDS011;26336;44.696;10.622;2022-10-16T05:35:44;22.20;;;16.77;;
40637;SDS011;26336;44.696;10.622;2022-10-16T05:38:50;19.58;;;15.43;;
40637;SDS011;26336;44.696;10.622;2022-10-16T05:41:54;20.50;;;15.38;;
40637;SDS011;26336;44.696;10.622;2022-10-16T05:44:58;23.10;;;16.05;;
40637;SDS011;26336;44.696;10.622;2022-10-16T05:48:03;17.77;;;14.35;;
40637;SDS011;26336;44.696;10.622;2022-10-16T05:51:09;21.02;;;15.18;;
40637;SDS011;26336;44.696;10.622;2022-10-16T05:54:14;18.58;;;14.93;;
40637;SDS011;26336;44.696;10.622;2022-10-16T05:57:19;21.73;;;15.98;;
40637;SDS011;26336;44.696;10.622;2022-10-16T06:00:22;18.83;;;13.52;;
40637;SDS011;26336;44.696;10.622;2022-10-16T06:03:26;16.17;;;13.50;;
40637;SDS011;26336;44.696;10.622;2022-10-16T06:06:31;16.63;;;13.43;;
40637;SDS011;26336;44.696;10.622;2022-10-16T06:09:35;18.05;;;14.98;;
40637;SDS011;26336;44.696;10.622;2022-10-16T06:12:39;21.48;;;15.35;;
40637;SDS011;26336;44.696;10.622;2022-10-16T06:15:43;18.88;;;16.17;;
40637;SDS011;26336;44.696;10.622;2022-10-16T06:18:47;20.88;;;18.13;;
40637;SDS011;26336;44.696;10.622;2022-10-16T06:21:53;24.92;;;19.95;;
40637;SDS011;26336;44.696;10.622;2022-10-16T06:24:57;19.45;;;14.80;;
40637;SDS011;26336;44.696;10.622;2022-10-16T06:28:01;15.80;;;13.38;;
40637;SDS011;26336;44.696;10.622;2022-10-16T06:31:06;16.88;;;13.65;;
40637;SDS011;26336;44.696;10.622;2022-10-16T06:34:11;18.27;;;14.45;;
40637;SDS011;26336;44.696;10.622;2022-10-16T06:37:15;19.42;;;13.48;;
40637;SDS011;26336;44.696;10.622;2022-10-16T06:40:19;20.30;;;13.38;;
40637;SDS011;26336;44.696;10.622;2022-10-16T06:43:23;18.23;;;13.15;;
40637;SDS011;26336;44.696;10.622;2022-10-16T06:46:27;14.50;;;12.30;;
40637;SDS011;26336;44.696;10.622;2022-10-16T06:49:31;16.30;;;12.27;;
40637;SDS011;26336;44.696;10.622;2022-10-16T06:52:35;15.90;;;12.32;;
40637;SDS011;26336;44.696;10.622;2022-10-16T06:55:39;17.38;;;12.55;;
40637;SDS011;26336;44.696;10.622;2022-10-16T06:58:43;17.92;;;12.55;;
40637;SDS011;26336;44.696;10.622;2022-10-16T07:01:47;15.63;;;13.13;;
40637;SDS011;26336;44.696;10.622;2022-10-16T07:04:51;18.05;;;14.48;;
40637;SDS011;26336;44.696;10.622;2022-10-16T07:07:55;17.23;;;12.80;;
40637;SDS011;26336;44.696;10.622;2022-10-16T07:11:00;19.80;;;14.82;;
40637;SDS011;26336;44.696;10.622;2022-10-16T07:14:10;19.50;;;15.02;;
40637;SDS011;26336;44.696;10.622;2022-10-16T07:17:18;21.48;;;16.75;;
40637;SDS011;26336;44.696;10.622;2022-10-16T07:20:22;23.95;;;16.63;;
40637;SDS011;26336;44.696;10.622;2022-10-16T07:23:26;21.13;;;16.45;;
40637;SDS011;26336;44.696;10.622;2022-10-16T07:26:30;21.20;;;16.88;;
40637;SDS011;26336;44.696;10.622;2022-10-16T07:29:37;19.73;;;15.15;;
40637;SDS011;26336;44.696;10.622;2022-10-16T07:32:42;18.55;;;15.02;;
40637;SDS011;26336;44.696;10.622;2022-10-16T07:35:55;22.38;;;16.45;;
40637;SDS011;26336;44.696;10.622;2022-10-16T07:38:59;21.45;;;16.00;;
40637;SDS011;26336;44.696;10.622;2022-10-16T07:42:03;22.92;;;16.55;;
40637;SDS011;26336;44.696;10.622;2022-10-16T07:45:07;23.35;;;15.05;;
40637;SDS011;26336;44.696;10.622;2022-10-16T07:48:11;19.15;;;16.33;;
40637;SDS011;26336;44.696;10.622;2022-10-16T07:51:16;20.38;;;15.43;;
40637;SDS011;26336;44.696;10.622;2022-10-16T07:54:22;29.25;;;17.55;;
40637;SDS011;26336;44.696;10.622;2022-10-16T07:57:26;26.88;;;19.67;;
40637;SDS011;26336;44.696;10.622;2022-10-16T08:00:30;22.52;;;17.25;;
40637;SDS011;26336;44.696;10.622;2022-10-16T08:03:34;26.88;;;19.77;;
40637;SDS011;26336;44.696;10.622;2022-10-16T08:06:39;22.00;;;17.25;;
40637;SDS011;26336;44.696;10.622;2022-10-16T08:09:44;28.25;;;19.30;;
40637;SDS011;26336;44.696;10.622;2022-10-16T08:12:52;22.40;;;16.60;;
40637;SDS011;26336;44.696;10.622;2022-10-16T08:15:56;20.30;;;17.02;;
40637;SDS011;26336;44.696;10.622;2022-10-16T08:19:00;26.75;;;19.83;;
40637;SDS011;26336;44.696;10.622;2022-10-16T08:22:03;25.58;;;20.15;;
40637;SDS011;26336;44.696;10.622;2022-10-16T08:25:07;26.00;;;18.25;;
40637;SDS011;26336;44.696;10.622;2022-10-16T08:28:11;22.70;;;17.58;;
40637;SDS011;26336;44.696;10.622;2022-10-16T08:31:15;25.77;;;17.70;;
40637;SDS011;26336;44.696;10.622;2022-10-16T08:34:19;24.45;;;18.63;;
40637;SDS011;26336;44.696;10.622;2022-10-16T08:37:24;24.92;;;17.60;;
40637;SDS011;26336;44.696;10.622;2022-10-16T08:40:35;23.75;;;16.42;;
40637;SDS011;26336;44.696;10.622;2022-10-16T08:47:07;22.35;;;16.67;;
40637;SDS011;26336;44.696;10.622;2022-10-16T08:50:26;24.38;;;18.52;;
40637;SDS011;26336;44.696;10.622;2022-10-16T08:53:38;23.48;;;17.42;;
40637;SDS011;26336;44.696;10.622;2022-10-16T09:00:17;19.88;;;16.10;;
40637;SDS011;26336;44.696;10.622;2022-10-16T09:10:04;23.15;;;15.77;;
40637;SDS011;26336;44.696;10.622;2022-10-16T09:16:56;25.15;;;19.88;;
40637;SDS011;26336;44.696;10.622;2022-10-16T09:23:30;24.90;;;18.33;;
40637;SDS011;26336;44.696;10.622;2022-10-16T09:26:37;25.52;;;19.48;;
40637;SDS011;26336;44.696;10.622;2022-10-16T09:29:41;22.95;;;18.95;;
40637;SDS011;26336;44.696;10.622;2022-10-16T09:32:45;27.75;;;20.00;;
40637;SDS011;26336;44.696;10.622;2022-10-16T09:35:53;28.60;;;19.60;;
40637;SDS011;26336;44.696;10.622;2022-10-16T09:39:07;28.80;;;19.77;;
40637;SDS011;26336;44.696;10.622;2022-10-16T09:42:22;24.52;;;20.02;;
40637;SDS011;26336;44.696;10.622;2022-10-16T09:45:33;25.10;;;19.85;;
40637;SDS011;26336;44.696;10.622;2022-10-16T09:48:39;27.17;;;21.13;;
40637;SDS011;26336;44.696;10.622;2022-10-16T09:51:47;30.52;;;22.02;;
40637;SDS011;26336;44.696;10.622;2022-10-16T09:54:52;30.23;;;23.35;;
40637;SDS011;26336;44.696;10.622;2022-10-16T09:58:11;31.55;;;23.88;;
40637;SDS011;26336;44.696;10.622;2022-10-16T10:04:23;34.10;;;24.17;;
40637;SDS011;26336;44.696;10.622;2022-10-16T10:07:33;33.25;;;24.73;;
40637;SDS011;26336;44.696;10.622;2022-10-16T10:10:42;29.73;;;21.70;;
40637;SDS011;26336;44.696;10.622;2022-10-16T10:13:47;28.65;;;19.85;;
40637;SDS011;26336;44.696;10.622;2022-10-16T10:16:51;25.40;;;20.02;;
40637;SDS011;26336;44.696;10.622;2022-10-16T10:23:33;30.45;;;23.40;;
40637;SDS011;26336;44.696;10.622;2022-10-16T10:26:37;32.70;;;23.23;;
40637;SDS011;26336;44.696;10.622;2022-10-16T10:29:48;30.63;;;22.70;;
40637;SDS011;26336;44.696;10.622;2022-10-16T10:33:32;32.72;;;23.13;;
40637;SDS011;26336;44.696;10.622;2022-10-16T10:36:56;29.45;;;21.13;;
40637;SDS011;26336;44.696;10.622;2022-10-16T10:40:39;30.63;;;22.67;;
40637;SDS011;26336;44.696;10.622;2022-10-16T10:47:06;33.30;;;24.52;;
40637;SDS011;26336;44.696;10.622;2022-10-16T11:06:43;29.90;;;21.65;;
40637;SDS011;26336;44.696;10.622;2022-10-16T11:10:07;27.83;;;20.75;;
40637;SDS011;26336;44.696;10.622;2022-10-16T11:16:39;31.15;;;22.52;;
40637;SDS011;26336;44.696;10.622;2022-10-16T11:20:02;24.00;;;19.55;;
40637;SDS011;26336;44.696;10.622;2022-10-16T11:23:31;25.73;;;19.25;;
40637;SDS011;26336;44.696;10.622;2022-10-16T11:26:46;26.75;;;19.77;;
40637;SDS011;26336;44.696;10.622;2022-10-16T11:29:58;21.10;;;16.35;;
40637;SDS011;26336;44.696;10.622;2022-10-16T11:36:12;22.80;;;19.85;;
40637;SDS011;26336;44.696;10.622;2022-10-16T11:42:32;27.08;;;19.38;;
40637;SDS011;26336;44.696;10.622;2022-10-16T11:45:53;18.90;;;16.02;;
40637;SDS011;26336;44.696;10.622;2022-10-16T11:49:03;28.27;;;18.88;;
40637;SDS011;26336;44.696;10.622;2022-10-16T11:52:20;28.95;;;18.13;;
40637;SDS011;26336;44.696;10.622;2022-10-16T11:55:34;22.63;;;17.65;;
40637;SDS011;26336;44.696;10.622;2022-10-16T11:58:41;19.10;;;15.15;;
40637;SDS011;26336;44.696;10.622;2022-10-16T12:08:41;25.15;;;18.67;;
40637;SDS011;26336;44.696;10.622;2022-10-16T12:11:46;26.55;;;18.00;;
40637;SDS011;26336;44.696;10.622;2022-10-16T12:14:59;20.33;;;16.40;;
40637;SDS011;26336;44.696;10.622;2022-10-16T12:18:22;30.23;;;19.10;;
40637;SDS011;26336;44.696;10.622;2022-10-16T12:21:30;26.83;;;18.30;;
40637;SDS011;26336;44.696;10.622;2022-10-16T12:24:39;21.17;;;16.13;;
40637;SDS011;26336;44.696;10.622;2022-10-16T12:27:45;22.63;;;17.20;;
40637;SDS011;26336;44.696;10.622;2022-10-16T12:31:01;23.17;;;16.52;;
40637;SDS011;26336;44.696;10.622;2022-10-16T12:34:14;25.70;;;17.73;;
40637;SDS011;26336;44.696;10.622;2022-10-16T12:40:38;21.65;;;15.30;;
40637;SDS011;26336;44.696;10.622;2022-10-16T12:43:48;18.42;;;14.23;;
40637;SDS011;26336;44.696;10.622;2022-10-16T12:46:52;22.15;;;16.38;;
40637;SDS011;26336;44.696;10.622;2022-10-16T12:49:56;21.45;;;15.80;;
40637;SDS011;26336;44.696;10.622;2022-10-16T12:53:01;26.13;;;17.05;;
40637;SDS011;26336;44.696;10.622;2022-10-16T13:02:47;20.23;;;14.93;;
40637;SDS011;26336;44.696;10.622;2022-10-16T13:06:20;20.73;;;13.65;;
40637;SDS011;26336;44.696;10.622;2022-10-16T13:16:14;22.02;;;13.02;;
40637;SDS011;26336;44.696;10.622;2022-10-16T13:19:46;17.85;;;12.40;;
40637;SDS011;26336;44.696;10.622;2022-10-16T13:30:10;24.75;;;13.27;;
40637;SDS011;26336;44.696;10.622;2022-10-16T13:33:41;82.53;;;19.50;;
40637;SDS011;26336;44.696;10.622;2022-10-16T13:36:50;149.00;;;24.05;;
40637;SDS011;26336;44.696;10.622;2022-10-16T13:40:06;132.18;;;23.88;;
40637;SDS011;26336;44.696;10.622;2022-10-16T13:43:32;28.48;;;14.45;;
40637;SDS011;26336;44.696;10.622;2022-10-16T13:46:42;25.85;;;13.05;;
40637;SDS011;26336;44.696;10.622;2022-10-16T13:49:59;22.17;;;12.45;;
40637;SDS011;26336;44.696;10.622;2022-10-16T13:53:06;21.52;;;12.00;;
40637;SDS011;26336;44.696;10.622;2022-10-16T13:56:16;18.33;;;12.20;;
40637;SDS011;26336;44.696;10.622;2022-10-16T13:59:24;17.15;;;12.02;;
40637;SDS011;26336;44.696;10.622;2022-10-16T14:09:29;13.82;;;10.27;;
40637;SDS011;26336;44.696;10.622;2022-10-16T14:12:34;14.40;;;10.50;;
40637;SDS011;26336;44.696;10.622;2022-10-16T14:15:38;17.45;;;12.40;;
40637;SDS011;26336;44.696;10.622;2022-10-16T14:18:44;15.30;;;10.45;;
40637;SDS011;26336;44.696;10.622;2022-10-16T14:21:54;18.67;;;12.15;;
40637;SDS011;26336;44.696;10.622;2022-10-16T14:25:00;13.55;;;10.65;;
40637;SDS011;26336;44.696;10.622;2022-10-16T14:31:24;19.85;;;11.68;;
40637;SDS011;26336;44.696;10.622;2022-10-16T14:34:32;15.73;;;11.50;;
40637;SDS011;26336;44.696;10.622;2022-10-16T14:37:43;12.98;;;9.80;;
40637;SDS011;26336;44.696;10.622;2022-10-16T14:40:48;13.40;;;10.85;;
40637;SDS011;26336;44.696;10.622;2022-10-16T14:43:54;12.43;;;10.88;;
40637;SDS011;26336;44.696;10.622;2022-10-16T14:47:09;16.20;;;9.43;;
40637;SDS011;26336;44.696;10.622;2022-10-16T14:50:18;14.07;;;9.57;;
40637;SDS011;26336;44.696;10.622;2022-10-16T14:53:22;12.18;;;10.35;;
40637;SDS011;26336;44.696;10.622;2022-10-16T14:56:28;18.27;;;11.98;;
40637;SDS011;26336;44.696;10.622;2022-10-16T15:02:42;20.65;;;11.98;;
40637;SDS011;26336;44.696;10.622;2022-10-16T15:05:46;20.48;;;13.05;;
40637;SDS011;26336;44.696;10.622;2022-10-16T15:08:51;13.02;;;9.82;;
40637;SDS011;26336;44.696;10.622;2022-10-16T15:11:56;15.88;;;12.20;;
40637;SDS011;26336;44.696;10.622;2022-10-16T15:15:00;14.43;;;11.98;;
40637;SDS011;26336;44.696;10.622;2022-10-16T15:18:04;21.88;;;13.20;;
40637;SDS011;26336;44.696;10.622;2022-10-16T15:21:13;20.23;;;14.20;;
40637;SDS011;26336;44.696;10.622;2022-10-16T15:24:27;16.17;;;12.20;;
40637;SDS011;26336;44.696;10.622;2022-10-16T15:27:31;18.30;;;13.27;;
40637;SDS011;26336;44.696;10.622;2022-10-16T15:30:43;22.98;;;15.70;;
40637;SDS011;26336;44.696;10.622;2022-10-16T15:33:50;17.15;;;12.98;;
40637;SDS011;26336;44.696;10.622;2022-10-16T15:36:57;23.30;;;15.90;;
40637;SDS011;26336;44.696;10.622;2022-10-16T15:40:03;23.58;;;14.20;;
40637;SDS011;26336;44.696;10.622;2022-10-16T15:43:07;19.42;;;14.32;;
40637;SDS011;26336;44.696;10.622;2022-10-16T15:46:12;20.85;;;13.82;;
40637;SDS011;26336;44.696;10.622;2022-10-16T15:49:17;23.92;;;14.57;;
40637;SDS011;26336;44.696;10.622;2022-10-16T15:52:21;18.88;;;14.13;;
40637;SDS011;26336;44.696;10.622;2022-10-16T15:55:26;21.88;;;14.50;;
40637;SDS011;26336;44.696;10.622;2022-10-16T15:58:30;16.73;;;12.40;;
40637;SDS011;26336;44.696;10.622;2022-10-16T16:01:34;18.20;;;11.10;;
40637;SDS011;26336;44.696;10.622;2022-10-16T16:04:39;19.98;;;12.55;;
40637;SDS011;26336;44.696;10.622;2022-10-16T16:07:43;21.80;;;15.80;;
40637;SDS011;26336;44.696;10.622;2022-10-16T16:11:06;21.17;;;14.30;;
40637;SDS011;26336;44.696;10.622;2022-10-16T16:14:13;29.42;;;15.07;;
40637;SDS011;26336;44.696;10.622;2022-10-16T16:17:17;21.10;;;14.73;;
40637;SDS011;26336;44.696;10.622;2022-10-16T16:20:21;18.52;;;12.88;;
40637;SDS011;26336;44.696;10.622;2022-10-16T16:23:25;17.80;;;12.40;;
40637;SDS011;26336;44.696;10.622;2022-10-16T16:26:29;18.52;;;13.25;;
40637;SDS011;26336;44.696;10.622;2022-10-16T16:29:39;17.90;;;13.20;;
40637;SDS011;26336;44.696;10.622;2022-10-16T16:32:44;17.90;;;13.85;;
40637;SDS011;26336;44.696;10.622;2022-10-16T16:35:48;16.35;;;12.40;;
40637;SDS011;26336;44.696;10.622;2022-10-16T16:38:52;15.90;;;12.98;;
40637;SDS011;26336;44.696;10.622;2022-10-16T16:41:56;20.25;;;15.13;;
40637;SDS011;26336;44.696;10.622;2022-10-16T16:45:06;20.52;;;13.85;;
40637;SDS011;26336;44.696;10.622;2022-10-16T16:48:10;21.17;;;14.38;;
40637;SDS011;26336;44.696;10.622;2022-10-16T16:51:15;20.15;;;13.18;;
40637;SDS011;26336;44.696;10.622;2022-10-16T16:54:21;17.60;;;12.40;;
40637;SDS011;26336;44.696;10.622;2022-10-16T16:57:25;20.75;;;13.07;;
40637;SDS011;26336;44.696;10.622;2022-10-16T17:00:30;21.77;;;14.32;;
40637;SDS011;26336;44.696;10.622;2022-10-16T17:03:35;17.08;;;13.25;;
40637;SDS011;26336;44.696;10.622;2022-10-16T17:06:39;21.40;;;14.32;;
40637;SDS011;26336;44.696;10.622;2022-10-16T17:09:44;23.35;;;14.57;;
40637;SDS011;26336;44.696;10.622;2022-10-16T17:12:48;19.50;;;14.32;;
40637;SDS011;26336;44.696;10.622;2022-10-16T17:15:52;21.15;;;14.13;;
40637;SDS011;26336;44.696;10.622;2022-10-16T17:19:03;18.83;;;14.00;;
40637;SDS011;26336;44.696;10.622;2022-10-16T17:22:09;18.50;;;12.98;;
40637;SDS011;26336;44.696;10.622;2022-10-16T17:25:13;17.35;;;13.23;;
40637;SDS011;26336;44.696;10.622;2022-10-16T17:28:17;14.55;;;12.43;;
40637;SDS011;26336;44.696;10.622;2022-10-16T17:31:23;17.50;;;13.25;;
40637;SDS011;26336;44.696;10.622;2022-10-16T17:34:28;17.30;;;13.35;;
40637;SDS011;26336;44.696;10.622;2022-10-16T17:37:32;15.50;;;11.77;;
40637;SDS011;26336;44.696;10.622;2022-10-16T17:40:37;17.48;;;13.35;;
40637;SDS011;26336;44.696;10.622;2022-10-16T17:43:41;16.40;;;12.82;;
40637;SDS011;26336;44.696;10.622;2022-10-16T17:46:46;21.42;;;14.90;;
40637;SDS011;26336;44.696;10.622;2022-10-16T17:49:51;22.63;;;15.57;;
40637;SDS011;26336;44.696;10.622;2022-10-16T17:52:56;24.20;;;17.92;;
40637;SDS011;26336;44.696;10.622;2022-10-16T17:56:07;26.70;;;17.95;;
40637;SDS011;26336;44.696;10.622;2022-10-16T17:59:13;25.40;;;17.63;;
40637;SDS011;26336;44.696;10.622;2022-10-16T18:02:17;23.42;;;16.58;;
40637;SDS011;26336;44.696;10.622;2022-10-16T18:05:21;30.27;;;20.42;;
40637;SDS011;26336;44.696;10.622;2022-10-16T18:08:25;24.73;;;18.42;;
40637;SDS011;26336;44.696;10.622;2022-10-16T18:11:33;25.05;;;18.63;;
40637;SDS011;26336;44.696;10.622;2022-10-16T18:14:37;22.00;;;17.02;;
40637;SDS011;26336;44.696;10.622;2022-10-16T18:17:41;21.88;;;17.13;;
40637;SDS011;26336;44.696;10.622;2022-10-16T18:20:54;26.58;;;20.23;;
40637;SDS011;26336;44.696;10.622;2022-10-16T18:23:59;25.88;;;18.83;;
40637;SDS011;26336;44.696;10.622;2022-10-16T18:27:04;23.48;;;18.52;;
40637;SDS011;26336;44.696;10.622;2022-10-16T18:30:08;27.83;;;19.35;;
40637;SDS011;26336;44.696;10.622;2022-10-16T18:33:12;30.67;;;21.45;;
40637;SDS011;26336;44.696;10.622;2022-10-16T18:36:23;30.67;;;21.58;;
40637;SDS011;26336;44.696;10.622;2022-10-16T18:39:37;24.17;;;18.13;;
40637;SDS011;26336;44.696;10.622;2022-10-16T18:42:41;23.05;;;16.98;;
40637;SDS011;26336;44.696;10.622;2022-10-16T18:45:57;26.00;;;18.77;;
40637;SDS011;26336;44.696;10.622;2022-10-16T18:49:02;23.48;;;19.05;;
40637;SDS011;26336;44.696;10.622;2022-10-16T18:52:07;30.23;;;19.65;;
40637;SDS011;26336;44.696;10.622;2022-10-16T18:55:10;33.67;;;21.60;;
40637;SDS011;26336;44.696;10.622;2022-10-16T18:58:14;29.20;;;22.48;;
40637;SDS011;26336;44.696;10.622;2022-10-16T19:01:20;32.97;;;24.08;;
40637;SDS011;26336;44.696;10.622;2022-10-16T19:04:26;26.67;;;23.40;;
40637;SDS011;26336;44.696;10.622;2022-10-16T19:07:30;30.10;;;22.30;;
40637;SDS011;26336;44.696;10.622;2022-10-16T19:10:37;30.40;;;22.08;;
40637;SDS011;26336;44.696;10.622;2022-10-16T19:13:44;29.10;;;22.52;;
40637;SDS011;26336;44.696;10.622;2022-10-16T19:16:50;27.38;;;20.10;;
40637;SDS011;26336;44.696;10.622;2022-10-16T19:19:53;31.15;;;22.35;;
40637;SDS011;26336;44.696;10.622;2022-10-16T19:22:58;31.55;;;24.08;;
40637;SDS011;26336;44.696;10.622;2022-10-16T19:26:03;31.08;;;23.25;;
40637;SDS011;26336;44.696;10.622;2022-10-16T19:29:11;30.75;;;23.17;;
40637;SDS011;26336;44.696;10.622;2022-10-16T19:32:15;30.92;;;22.65;;
40637;SDS011;26336;44.696;10.622;2022-10-16T19:35:19;32.00;;;22.55;;
40637;SDS011;26336;44.696;10.622;2022-10-16T19:38:25;33.03;;;22.63;;
40637;SDS011;26336;44.696;10.622;2022-10-16T19:41:29;27.52;;;20.42;;
40637;SDS011;26336;44.696;10.622;2022-10-16T19:44:33;31.42;;;21.23;;
40637;SDS011;26336;44.696;10.622;2022-10-16T19:47:37;27.88;;;21.75;;
40637;SDS011;26336;44.696;10.622;2022-10-16T19:50:44;31.17;;;21.67;;
40637;SDS011;26336;44.696;10.622;2022-10-16T19:53:52;36.10;;;22.95;;
40637;SDS011;26336;44.696;10.622;2022-10-16T19:57:07;32.28;;;22.90;;
40637;SDS011;26336;44.696;10.622;2022-10-16T20:00:12;29.65;;;22.05;;